Time;durP1;ratioP1;P1;durP2;ratioP2;P2;SDS_P1;SDS_P2;PMS_P1;PMS_P2;Temp;Humidity;BMP_temperature;BMP_pressure;BME280_temperature;BME280_humidity;BME280_pressure;Samples;Min_cycle;Max_cycle;Signal;HPM_P1;HPM_P2
2022/03/12 00:02:23;;;;;;;27.80;12.73;;;;;;;9.29;42.06;101095.63;5104098;28;20039;-77
2022/03/12 00:04:49;;;;;;;28.65;13.00;;;;;;;9.30;42.37;101091.13;5103653;28;20091;-77
2022/03/12 00:07:14;;;;;;;29.40;13.38;;;;;;;9.30;42.21;101092.00;5092541;28;20475;-76
2022/03/12 00:09:39;;;;;;;26.35;13.23;;;;;;;9.29;42.76;101090.28;5077559;28;20040;-76
2022/03/12 00:12:05;;;;;;;32.42;13.02;;;;;;;9.29;42.58;101084.91;5083245;28;20398;-76
2022/03/12 00:14:33;;;;;;;26.30;12.77;;;;;;;9.31;42.75;101096.38;5083439;28;20051;-76
2022/03/12 00:16:58;;;;;;;25.73;13.18;;;;;;;9.30;43.18;101097.38;5082339;28;20039;-77
2022/03/12 00:19:24;;;;;;;24.73;11.70;;;;;;;9.30;43.41;101097.38;5085096;28;20347;-76
2022/03/12 00:21:49;;;;;;;26.42;12.80;;;;;;;9.31;43.33;101098.22;5073145;28;20039;-76
2022/03/12 00:24:15;;;;;;;30.65;12.77;;;;;;;9.30;43.62;101101.84;5068138;28;20020;-76
2022/03/12 00:26:43;;;;;;;24.50;11.93;;;;;;;9.30;43.64;101108.09;5068011;28;20050;-76
2022/03/12 00:29:14;;;;;;;26.52;12.57;;;;;;;9.30;43.68;101112.59;5070596;28;20025;-76
2022/03/12 00:31:41;;;;;;;24.95;12.40;;;;;;;9.31;43.33;101109.81;5053753;28;20033;-76
2022/03/12 00:34:06;;;;;;;26.40;12.23;;;;;;;9.30;43.47;101113.47;5069792;28;20031;-76
2022/03/12 00:36:32;;;;;;;27.63;12.95;;;;;;;9.32;43.48;101116.91;5056145;28;20029;-76
2022/03/12 00:38:57;;;;;;;25.40;12.13;;;;;;;9.33;43.14;101117.78;5068285;28;20025;-76
2022/03/12 00:41:23;;;;;;;26.73;12.82;;;;;;;9.33;43.57;101118.63;5067600;28;20051;-76
2022/03/12 00:43:48;;;;;;;27.77;13.65;;;;;;;9.33;43.78;101129.34;5070102;28;20590;-77
2022/03/12 00:46:14;;;;;;;26.55;13.15;;;;;;;9.31;44.49;101123.22;5068445;28;20056;-77
2022/03/12 00:48:39;;;;;;;27.08;12.35;;;;;;;9.30;44.83;101118.81;5068481;28;20024;-77
2022/03/12 00:51:06;;;;;;;25.17;13.43;;;;;;;9.30;45.18;101128.69;5070606;28;20032;-77
2022/03/12 00:53:32;;;;;;;32.08;14.65;;;;;;;9.29;46.02;101127.81;5070340;28;20033;-77
2022/03/12 00:55:57;;;;;;;31.80;12.57;;;;;;;9.25;46.67;101129.84;5068945;28;20044;-76
2022/03/12 00:58:23;;;;;;;26.52;12.68;;;;;;;9.22;46.53;101122.00;5059923;28;20025;-76
2022/03/12 01:00:49;;;;;;;25.77;12.77;;;;;;;9.22;46.91;101126.50;5049985;28;20444;-77
2022/03/12 01:03:14;;;;;;;26.10;12.63;;;;;;;9.20;46.85;101128.41;5062130;28;20336;-77
2022/03/12 01:05:53;;;;;;;26.45;12.27;;;;;;;9.18;47.39;101125.84;5060179;28;20020;-76
2022/03/12 01:08:20;;;;;;;27.05;12.98;;;;;;;9.18;46.83;101122.28;5070104;28;20803;-76
2022/03/12 01:10:46;;;;;;;26.10;12.45;;;;;;;9.16;46.87;101124.19;5069503;28;20040;-76
2022/03/12 01:13:12;;;;;;;25.45;11.73;;;;;;;9.16;47.15;101121.50;5064257;28;20032;-76
2022/03/12 01:15:39;;;;;;;27.23;11.77;;;;;;;9.16;48.28;101127.72;5064640;28;20040;-77
2022/03/12 01:18:11;;;;;;;25.65;12.07;;;;;;;9.15;48.35;101131.41;5060393;28;20441;-76
2022/03/12 01:20:36;;;;;;;27.58;12.85;;;;;;;9.15;48.77;101133.19;5067467;28;20028;-76
2022/03/12 01:23:02;;;;;;;26.90;13.30;;;;;;;9.14;48.97;101131.50;5067884;28;20628;-76
2022/03/12 01:25:28;;;;;;;28.70;13.32;;;;;;;9.14;49.37;101134.19;5069664;28;20028;-76
2022/03/12 01:27:53;;;;;;;26.70;12.80;;;;;;;9.13;49.69;101135.13;5068093;28;20024;-76
2022/03/12 01:30:26;;;;;;;26.00;12.82;;;;;;;9.08;51.73;101141.63;5064650;28;20035;-76
2022/03/12 01:32:52;;;;;;;27.73;12.70;;;;;;;9.05;52.53;101144.50;5066849;28;20392;-76
2022/03/12 01:35:17;;;;;;;28.25;12.05;;;;;;;9.03;52.29;101143.72;5053494;28;20021;-76
2022/03/12 01:37:42;;;;;;;25.25;12.77;;;;;;;8.99;53.60;101157.41;5048427;28;20024;-77
2022/03/12 01:40:09;;;;;;;31.67;14.60;;;;;;;8.98;53.87;101155.72;5051236;28;20032;-77
2022/03/12 01:42:34;;;;;;;26.42;13.82;;;;;;;8.94;54.64;101155.03;5068764;28;20032;-77
2022/03/12 01:44:59;;;;;;;27.98;15.13;;;;;;;8.88;55.68;101152.72;5067559;28;20035;-77
2022/03/12 01:47:25;;;;;;;27.30;13.95;;;;;;;8.81;58.36;101159.41;5059623;28;20036;-76
2022/03/12 01:49:53;;;;;;;26.70;14.35;;;;;;;8.78;56.74;101148.88;5065931;28;20419;-76
2022/03/12 01:52:20;;;;;;;29.33;14.05;;;;;;;8.72;57.17;101150.97;5058945;28;20055;-76
2022/03/12 01:54:46;;;;;;;27.85;12.73;;;;;;;8.68;58.52;101153.94;5050230;28;20058;-76
2022/03/12 01:57:11;;;;;;;25.75;13.15;;;;;;;8.64;58.35;101144.34;5066155;28;20107;-76
2022/03/12 01:59:37;;;;;;;28.08;14.93;;;;;;;8.60;59.05;101143.69;5068664;28;20020;-76
2022/03/12 02:02:08;;;;;;;26.80;13.07;;;;;;;8.57;58.66;101146.56;5066961;28;20036;-73
2022/03/12 02:04:36;;;;;;;27.88;13.38;;;;;;;8.56;58.13;101143.03;5068630;28;20059;-73
2022/03/12 02:07:01;;;;;;;27.35;13.88;;;;;;;8.55;58.46;101138.59;5069052;28;20025;-73
2022/03/12 02:09:26;;;;;;;29.45;13.55;;;;;;;8.55;58.77;101143.97;5066890;28;20396;-73
2022/03/12 02:11:52;;;;;;;32.05;14.55;;;;;;;8.56;57.34;101147.50;5068380;28;20028;-73
2022/03/12 02:14:27;;;;;;;25.85;13.60;;;;;;;8.54;59.02;101149.41;5063975;28;20036;-73
2022/03/12 02:16:54;;;;;;;27.67;14.52;;;;;;;8.54;58.24;101144.91;5049477;28;20158;-73
2022/03/12 02:19:22;;;;;;;26.92;14.07;;;;;;;8.54;58.18;101149.41;5061391;28;20071;-73
2022/03/12 02:21:53;;;;;;;28.02;14.05;;;;;;;8.54;57.89;101152.94;5064020;28;20059;-72
2022/03/12 02:24:21;;;;;;;28.63;13.73;;;;;;;8.53;57.72;101151.22;5048052;28;20122;-72
2022/03/12 02:26:47;;;;;;;25.58;13.07;;;;;;;8.55;57.79;101153.81;5059186;28;20032;-72
2022/03/12 02:29:18;;;;;;;25.63;12.40;;;;;;;8.58;57.22;101140.25;5056544;28;20033;-73
2022/03/12 02:31:47;;;;;;;27.63;12.23;;;;;;;8.60;58.12;101151.72;5048047;28;20068;-73
2022/03/12 02:34:13;;;;;;;27.17;13.02;;;;;;;8.61;57.96;101148.09;5068950;28;20039;-72
2022/03/12 02:36:40;;;;;;;27.98;13.40;;;;;;;8.61;59.06;101148.09;5058449;28;20029;-73
2022/03/12 02:39:07;;;;;;;26.15;12.77;;;;;;;8.61;58.08;101158.81;5064206;28;20146;-73
2022/03/12 02:41:33;;;;;;;31.48;13.57;;;;;;;8.61;58.11;101156.13;5067864;28;20031;-72
2022/03/12 02:43:58;;;;;;;28.67;14.50;;;;;;;8.63;57.88;101158.72;5061944;28;20033;-73
2022/03/12 02:46:28;;;;;;;24.73;12.52;;;;;;;8.63;58.61;101164.09;5048399;28;20467;-73
2022/03/12 02:48:53;;;;;;;25.83;12.32;;;;;;;8.63;58.32;101166.75;5054984;28;20395;-73
2022/03/12 02:51:21;;;;;;;25.42;13.20;;;;;;;8.62;58.85;101173.91;5065128;28;20037;-73
2022/03/12 02:53:49;;;;;;;23.98;11.98;;;;;;;8.62;58.99;101173.91;5057813;28;20564;-73
2022/03/12 02:56:15;;;;;;;26.35;13.13;;;;;;;8.58;60.32;101169.72;5067518;28;20075;-73
2022/03/12 02:58:41;;;;;;;29.30;13.02;;;;;;;8.57;59.73;101173.34;5058977;28;20135;-73
2022/03/12 03:01:06;;;;;;;26.65;12.38;;;;;;;8.56;60.01;101171.59;5063522;28;20503;-73
2022/03/12 03:03:35;;;;;;;25.85;12.43;;;;;;;8.54;60.19;101178.88;5064340;28;20059;-72
2022/03/12 03:06:01;;;;;;;28.60;13.68;;;;;;;8.49;60.27;101172.94;5064737;28;20118;-74
2022/03/12 03:08:28;;;;;;;27.33;12.85;;;;;;;8.46;59.79;101173.97;5050204;28;20028;-73
2022/03/12 03:10:56;;;;;;;26.98;13.35;;;;;;;8.41;60.42;101173.34;5066773;28;20068;-72
2022/03/12 03:13:27;;;;;;;24.20;12.30;;;;;;;8.36;61.06;101170.94;5055863;28;20111;-73
2022/03/12 03:16:08;;;;;;;25.92;11.68;;;;;;;8.32;60.15;101185.47;5066931;28;20054;-73
2022/03/12 03:18:37;;;;;;;26.30;12.10;;;;;;;8.21;61.62;101187.91;5067077;28;20111;-72
2022/03/12 03:21:05;;;;;;;24.45;11.07;;;;;;;8.15;61.26;101196.28;5045543;28;20112;-73
2022/03/12 03:23:31;;;;;;;25.27;12.98;;;;;;;8.08;61.95;101190.41;5060507;28;20396;-73
2022/03/12 03:25:57;;;;;;;25.90;12.02;;;;;;;8.01;63.34;101187.25;5061625;28;20032;-73
2022/03/12 03:28:22;;;;;;;26.50;12.65;;;;;;;7.98;61.87;101187.44;5066925;28;20055;-73
2022/03/12 03:30:48;;;;;;;26.35;12.25;;;;;;;7.96;62.53;101188.47;5068179;28;20129;-73
2022/03/12 03:33:16;;;;;;;24.42;11.32;;;;;;;7.90;63.91;101188.81;5067756;28;20055;-72
2022/03/12 03:35:42;;;;;;;23.55;10.95;;;;;;;7.86;64.07;101193.44;5066900;28;20648;-73
2022/03/12 03:38:10;;;;;;;22.17;10.77;;;;;;;7.83;65.88;101199.88;5067048;28;20024;-73
2022/03/12 03:40:36;;;;;;;22.42;10.35;;;;;;;7.84;65.60;101200.72;5067524;28;20048;-73
2022/03/12 03:43:03;;;;;;;25.48;10.48;;;;;;;7.84;66.77;101203.41;5067546;28;20036;-73
2022/03/12 03:45:29;;;;;;;24.25;10.45;;;;;;;7.84;67.34;101206.06;5067903;28;20028;-73
2022/03/12 03:47:55;;;;;;;24.35;9.85;;;;;;;7.82;67.63;101207.97;5066203;28;20036;-73
2022/03/12 03:50:25;;;;;;;24.48;10.48;;;;;;;7.81;68.46;101206.25;5065812;28;20032;-73
2022/03/12 03:53:03;;;;;;;21.25;9.35;;;;;;;7.78;68.87;101201.94;5058043;28;20119;-73
2022/03/12 03:55:33;;;;;;;26.45;10.45;;;;;;;7.78;68.95;101214.44;5065624;28;20044;-73
2022/03/12 03:57:59;;;;;;;20.40;8.40;;;;;;;7.76;69.23;101210.97;5068874;28;20032;-73
2022/03/12 04:00:26;;;;;;;24.63;9.68;;;;;;;7.68;69.30;101206.06;5072246;28;20073;-73
2022/03/12 04:03:02;;;;;;;22.70;9.50;;;;;;;7.65;69.81;101220.47;5070869;28;20387;-73
2022/03/12 04:05:31;;;;;;;22.50;8.73;;;;;;;7.63;70.38;101209.00;5071187;28;20100;-73
2022/03/12 04:07:57;;;;;;;23.00;9.50;;;;;;;7.64;70.27;101221.44;5071412;28;20104;-73
2022/03/12 04:10:23;;;;;;;20.67;8.40;;;;;;;7.60;70.54;101225.22;5070938;28;20129;-73
2022/03/12 04:12:49;;;;;;;21.10;8.50;;;;;;;7.60;70.94;101225.22;5060992;28;20033;-73
2022/03/12 04:15:15;;;;;;;20.48;9.15;;;;;;;7.58;70.68;101228.91;5069000;28;20461;-73
2022/03/12 04:17:41;;;;;;;21.65;9.65;;;;;;;7.55;70.92;101231.75;5065354;28;20031;-72
2022/03/12 04:20:08;;;;;;;22.27;8.68;;;;;;;7.50;71.17;101230.19;5069946;28;20087;-72
2022/03/12 04:22:38;;;;;;;23.75;8.90;;;;;;;7.46;71.38;101227.78;5071144;28;20016;-73
2022/03/12 04:25:04;;;;;;;21.83;8.73;;;;;;;7.44;72.39;101237.72;5070981;28;20476;-73
2022/03/12 04:27:30;;;;;;;23.52;8.90;;;;;;;7.43;72.31;101230.63;5068792;28;20129;-73
2022/03/12 04:29:55;;;;;;;20.80;7.55;;;;;;;7.40;73.27;101228.97;5051987;28;20024;-73
2022/03/12 04:32:20;;;;;;;21.00;7.40;;;;;;;7.41;73.87;101235.16;5051887;28;20029;-72
2022/03/12 04:34:46;;;;;;;18.77;6.88;;;;;;;7.35;74.52;101233.72;5063301;28;20506;-72
2022/03/12 04:37:11;;;;;;;21.10;7.13;;;;;;;7.38;74.72;101241.56;5062248;28;20082;-72
2022/03/12 04:39:36;;;;;;;19.58;6.95;;;;;;;7.39;75.06;101234.41;5070785;28;20033;-72
2022/03/12 04:42:03;;;;;;;17.10;5.75;;;;;;;7.38;75.52;101235.34;5067537;28;20036;-72
2022/03/12 04:44:28;;;;;;;19.63;7.00;;;;;;;7.35;76.14;101241.75;5068595;28;20032;-72
2022/03/12 04:46:53;;;;;;;17.40;6.10;;;;;;;7.35;76.21;101237.25;5068691;28;20124;-72
2022/03/12 04:49:19;;;;;;;18.17;6.75;;;;;;;7.34;76.96;101231.97;5069666;28;20032;-73
2022/03/12 04:51:44;;;;;;;19.15;6.32;;;;;;;7.35;77.09;101237.25;5070476;28;20032;-73
2022/03/12 04:54:10;;;;;;;19.45;6.07;;;;;;;7.34;77.76;101240.00;5069397;28;20081;-72
2022/03/12 04:56:35;;;;;;;16.58;5.78;;;;;;;7.33;77.65;101243.59;5065727;28;20036;-72
2022/03/12 04:59:01;;;;;;;18.70;6.07;;;;;;;7.31;77.85;101249.03;5060756;28;20191;-72
2022/03/12 05:01:28;;;;;;;16.52;5.88;;;;;;;7.32;78.08;101244.53;5068168;28;20032;-73
2022/03/12 05:03:53;;;;;;;17.50;5.55;;;;;;;7.31;78.59;101246.38;5070322;28;20452;-73
2022/03/12 05:06:19;;;;;;;17.13;5.07;;;;;;;7.34;79.19;101253.38;5061216;28;20029;-73
2022/03/12 05:08:45;;;;;;;15.57;5.70;;;;;;;7.35;78.81;101239.91;5069869;28;20351;-73
2022/03/12 05:11:10;;;;;;;17.52;5.82;;;;;;;7.36;79.15;101248.78;5067986;28;20056;-72
2022/03/12 05:13:36;;;;;;;15.10;5.10;;;;;;;7.37;79.47;101249.69;5068023;28;20064;-72
2022/03/12 05:16:06;;;;;;;16.13;5.55;;;;;;;7.36;79.27;101248.78;5069132;28;20032;-72
2022/03/12 05:18:33;;;;;;;17.45;6.13;;;;;;;7.38;79.41;101252.25;5062824;28;20032;-72
2022/03/12 05:20:58;;;;;;;16.45;5.60;;;;;;;7.39;79.72;101258.47;5050823;28;20025;-74
2022/03/12 05:23:24;;;;;;;14.95;4.97;;;;;;;7.40;79.67;101262.88;5067021;28;20024;-72
2022/03/12 05:25:50;;;;;;;16.73;5.47;;;;;;;7.39;79.74;101263.81;5068181;28;20112;-72
2022/03/12 05:28:22;;;;;;;17.95;6.07;;;;;;;7.38;79.68;101262.06;5059764;28;20120;-72
2022/03/12 05:30:48;;;;;;;17.77;5.93;;;;;;;7.38;79.91;101267.44;5049674;28;20124;-72
2022/03/12 05:33:14;;;;;;;16.80;6.35;;;;;;;7.38;80.02;101264.75;5063225;28;20070;-72
2022/03/12 05:35:41;;;;;;;18.77;6.35;;;;;;;7.38;80.08;101276.34;5050805;28;20074;-72
2022/03/12 05:38:07;;;;;;;16.70;5.45;;;;;;;7.37;80.28;101279.09;5064358;28;20048;-72
2022/03/12 05:40:38;;;;;;;17.95;6.13;;;;;;;7.36;80.31;101283.56;5054088;28;20033;-72
2022/03/12 05:43:07;;;;;;;18.25;5.45;;;;;;;7.31;80.21;101278.44;5053541;28;20109;-72
2022/03/12 05:45:33;;;;;;;14.05;5.22;;;;;;;7.30;80.32;101287.41;5067551;28;20029;-72
2022/03/12 05:47:58;;;;;;;18.42;6.68;;;;;;;7.27;80.70;101284.03;5056742;28;20020;-72
2022/03/12 05:50:24;;;;;;;16.85;5.28;;;;;;;7.27;80.63;101286.72;5059523;28;20066;-72
2022/03/12 05:52:49;;;;;;;17.40;6.75;;;;;;;7.23;80.95;101290.50;5066025;28;20036;-73
2022/03/12 05:55:21;;;;;;;16.63;5.80;;;;;;;7.22;80.78;101286.97;5056112;28;20039;-73
2022/03/12 05:57:47;;;;;;;19.95;6.38;;;;;;;7.19;80.85;101289.81;5067867;28;20067;-73
2022/03/12 06:00:15;;;;;;;19.13;6.97;;;;;;;7.13;80.39;101296.31;5067918;28;20040;-73
2022/03/12 06:02:50;;;;;;;18.70;6.90;;;;;;;7.10;80.15;101295.59;5068432;28;20120;-73
2022/03/12 06:05:17;;;;;;;19.90;7.32;;;;;;;7.09;80.20;101283.22;5067693;28;20028;-72
2022/03/12 06:07:45;;;;;;;23.17;8.23;;;;;;;7.09;80.09;101293.91;5068426;28;20036;-73
2022/03/12 06:10:15;;;;;;;19.52;7.25;;;;;;;7.07;80.24;101301.13;5068505;28;20048;-73
2022/03/12 06:12:43;;;;;;;;;;;;;;;7.13;77.67;101290.09;5067760;28;20077;-73
2022/03/12 06:15:13;;;;;;;20.90;7.95;;;;;;;7.06;79.62;101294.03;5069061;28;20319;-73
2022/03/12 06:17:39;;;;;;;24.17;8.35;;;;;;;7.03;80.02;101302.19;5069463;28;20387;-73
2022/03/12 06:20:10;;;;;;;19.08;7.18;;;;;;;7.00;80.43;101306.78;5067344;28;20030;-73
2022/03/12 06:22:36;;;;;;;20.50;7.68;;;;;;;7.02;80.29;101308.53;5066630;28;20471;-72
2022/03/12 06:25:03;;;;;;;19.70;7.22;;;;;;;7.02;80.35;101309.38;5069563;28;20401;-72
2022/03/12 06:27:28;;;;;;;22.27;8.05;;;;;;;7.04;80.29;101309.28;5067388;28;20027;-73
2022/03/12 06:29:56;;;;;;;19.13;7.50;;;;;;;7.04;80.61;101314.63;5056095;28;20029;-73
2022/03/12 06:32:22;;;;;;;19.90;7.30;;;;;;;7.04;80.97;101320.84;5054891;28;20082;-73
2022/03/12 06:34:47;;;;;;;19.80;7.38;;;;;;;7.07;81.01;101315.34;5066178;28;20675;-73
2022/03/12 06:37:13;;;;;;;23.25;8.40;;;;;;;7.09;80.58;101316.13;5067655;28;20499;-73
2022/03/12 06:39:38;;;;;;;17.10;6.72;;;;;;;7.10;80.86;101317.00;5069145;28;20134;-72
2022/03/12 06:42:04;;;;;;;20.17;7.43;;;;;;;7.12;80.63;101315.13;5067856;28;20028;-72
2022/03/12 06:44:32;;;;;;;20.55;8.68;;;;;;;7.14;80.90;101315.88;5065294;28;20024;-73
2022/03/12 06:46:59;;;;;;;17.92;7.30;;;;;;;7.15;81.03;101320.31;5061002;28;20063;-73
2022/03/12 06:49:26;;;;;;;17.75;7.18;;;;;;;7.18;80.95;101333.50;5062148;28;20083;-73
2022/03/12 06:51:52;;;;;;;19.75;7.63;;;;;;;7.22;81.14;101332.41;5066423;28;20067;-73
2022/03/12 06:54:17;;;;;;;22.55;7.68;;;;;;;7.25;81.25;101332.25;5067468;28;20052;-73
2022/03/12 06:56:43;;;;;;;19.63;7.20;;;;;;;7.28;81.29;101334.75;5065760;28;20035;-73
2022/03/12 06:59:08;;;;;;;19.63;7.10;;;;;;;7.32;81.38;101338.13;5068115;28;20032;-73
2022/03/12 07:01:34;;;;;;;18.80;6.80;;;;;;;7.36;81.32;101337.03;5066573;28;20127;-73
2022/03/12 07:03:59;;;;;;;21.25;7.47;;;;;;;7.40;81.20;101333.25;5064645;28;20028;-73
2022/03/12 07:06:24;;;;;;;20.02;6.93;;;;;;;7.44;81.24;101336.66;5068081;28;20032;-73
2022/03/12 07:08:50;;;;;;;19.58;7.03;;;;;;;7.47;81.34;101341.84;5066227;28;20032;-73
2022/03/12 07:11:16;;;;;;;18.45;7.32;;;;;;;7.50;81.14;101341.69;5068359;28;20365;-73
2022/03/12 07:13:42;;;;;;;19.27;7.00;;;;;;;7.53;81.27;101342.38;5067488;28;20028;-72
2022/03/12 07:16:07;;;;;;;19.70;7.22;;;;;;;7.58;81.08;101343.94;5067827;28;20068;-72
2022/03/12 07:18:33;;;;;;;18.95;7.60;;;;;;;7.63;81.26;101349.94;5068593;28;20863;-72
2022/03/12 07:20:58;;;;;;;21.27;7.55;;;;;;;7.66;81.14;101357.78;5067804;28;20024;-72
2022/03/12 07:23:23;;;;;;;19.70;7.35;;;;;;;7.70;80.99;101354.84;5068180;28;20025;-72
2022/03/12 07:25:49;;;;;;;18.00;6.38;;;;;;;7.74;80.88;101355.53;5067621;28;20032;-72
2022/03/12 07:28:17;;;;;;;19.02;6.90;;;;;;;7.78;80.32;101366.97;5064779;28;20048;-72
2022/03/12 07:30:43;;;;;;;19.15;6.75;;;;;;;7.82;80.58;101366.72;5067015;28;20122;-72
2022/03/12 07:33:09;;;;;;;20.30;7.25;;;;;;;7.85;80.67;101365.69;5069209;28;20036;-72
2022/03/12 07:35:35;;;;;;;20.35;7.20;;;;;;;7.91;80.19;101377.88;5061752;28;20063;-72
2022/03/12 07:38:00;;;;;;;20.17;7.65;;;;;;;7.96;80.35;101371.31;5049526;28;20037;-72
2022/03/12 07:40:25;;;;;;;19.25;7.78;;;;;;;7.99;80.25;101381.84;5065288;28;20104;-72
2022/03/12 07:42:51;;;;;;;21.52;7.55;;;;;;;8.04;80.10;101390.50;5069793;28;20024;-72
2022/03/12 07:45:16;;;;;;;19.02;7.75;;;;;;;8.11;79.98;101392.84;5061351;28;20029;-72
2022/03/12 07:47:42;;;;;;;21.67;8.77;;;;;;;8.14;80.04;101390.88;5061601;28;20077;-72
2022/03/12 07:50:09;;;;;;;24.70;10.82;;;;;;;8.20;79.84;101403.09;5068926;28;20154;-72
2022/03/12 07:52:34;;;;;;;21.88;8.93;;;;;;;8.26;80.08;101393.81;5066694;28;20096;-72
2022/03/12 07:54:59;;;;;;;20.23;8.02;;;;;;;8.32;79.58;101397.03;5052316;28;20120;-72
2022/03/12 07:57:28;;;;;;;21.45;7.88;;;;;;;8.35;79.60;101394.19;5069290;28;20118;-72
2022/03/12 07:59:53;;;;;;;21.98;9.20;;;;;;;8.43;79.19;101403.63;5071655;28;20435;-73
2022/03/12 08:02:19;;;;;;;20.40;8.88;;;;;;;8.48;78.83;101404.28;5058875;28;20024;-72
2022/03/12 08:04:44;;;;;;;22.02;8.30;;;;;;;8.51;78.89;101396.06;5067124;28;20022;-72
2022/03/12 08:07:10;;;;;;;19.95;7.68;;;;;;;8.55;78.62;101402.94;5070928;28;20387;-73
2022/03/12 08:09:38;;;;;;;21.48;8.27;;;;;;;8.59;78.58;101412.56;5071357;28;20060;-73
2022/03/12 08:12:04;;;;;;;20.77;8.55;;;;;;;8.64;78.51;101413.19;5070142;28;20036;-73
2022/03/12 08:14:31;;;;;;;20.83;8.68;;;;;;;8.67;78.32;101421.03;5069783;28;20048;-73
2022/03/12 08:16:57;;;;;;;19.15;8.43;;;;;;;8.72;78.13;101418.94;5068985;28;20032;-73
2022/03/12 08:19:22;;;;;;;24.35;9.95;;;;;;;8.78;78.20;101422.25;5069517;28;20025;-73
2022/03/12 08:21:49;;;;;;;21.65;8.25;;;;;;;8.81;78.00;101424.75;5070996;28;20589;-73
2022/03/12 08:24:15;;;;;;;24.45;10.45;;;;;;;8.84;78.06;101424.56;5070564;28;20024;-73
2022/03/12 08:26:42;;;;;;;23.23;10.02;;;;;;;8.89;77.59;101427.88;5070268;28;20463;-73
2022/03/12 08:29:13;;;;;;;20.92;8.43;;;;;;;8.93;77.61;101440.13;5069869;28;20170;-73
2022/03/12 08:31:39;;;;;;;20.75;8.30;;;;;;;8.99;77.58;101439.78;5069986;28;20024;-73
2022/03/12 08:34:05;;;;;;;21.20;7.70;;;;;;;9.04;77.79;101442.22;5059798;28;20029;-73
2022/03/12 08:36:31;;;;;;;20.83;7.78;;;;;;;9.09;77.70;101442.78;5068143;28;20032;-74
2022/03/12 08:38:56;;;;;;;20.58;8.18;;;;;;;9.16;77.88;101454.03;5070123;28;20120;-73
2022/03/12 08:41:22;;;;;;;20.58;8.63;;;;;;;9.23;77.25;101445.53;5069365;28;20036;-73
2022/03/12 08:43:49;;;;;;;19.85;7.78;;;;;;;9.30;77.24;101446.06;5069278;28;20024;-72
2022/03/12 08:46:15;;;;;;;19.55;7.32;;;;;;;9.35;76.83;101452.00;5069806;28;20459;-72
2022/03/12 08:48:40;;;;;;;18.67;6.97;;;;;;;9.40;76.39;101449.94;5070843;28;20107;-72
2022/03/12 08:51:06;;;;;;;17.38;5.38;;;;;;;9.45;75.72;101453.19;5069487;28;20047;-73
2022/03/12 08:53:31;;;;;;;17.48;5.53;;;;;;;9.52;76.04;101461.75;5069353;28;20029;-73
2022/03/12 08:55:59;;;;;;;16.52;5.88;;;;;;;9.58;75.16;101450.66;5070639;28;20464;-73
2022/03/12 08:58:25;;;;;;;19.85;6.72;;;;;;;9.66;74.65;101458.25;5070377;28;20690;-73
2022/03/12 09:00:52;;;;;;;18.20;5.72;;;;;;;9.70;73.94;101459.78;5069052;28;20073;-73
2022/03/12 09:03:19;;;;;;;15.50;4.95;;;;;;;9.75;73.86;101459.50;5069861;28;20431;-73
2022/03/12 09:05:44;;;;;;;18.45;5.50;;;;;;;9.79;73.51;101453.91;5069996;28;20035;-73
2022/03/12 09:08:10;;;;;;;16.10;5.13;;;;;;;9.87;73.63;101452.53;5068905;28;20028;-73
2022/03/12 09:10:35;;;;;;;16.13;5.00;;;;;;;9.92;73.17;101458.50;5068692;28;20515;-73
2022/03/12 09:13:01;;;;;;;17.80;5.50;;;;;;;9.97;72.13;101462.63;5068792;28;20025;-73
2022/03/12 09:15:26;;;;;;;18.20;5.10;;;;;;;10.04;72.19;101459.56;5067950;28;20024;-74
2022/03/12 09:17:54;;;;;;;17.00;5.65;;;;;;;10.08;71.41;101467.34;5069351;28;20043;-73
2022/03/12 09:20:20;;;;;;;22.30;5.78;;;;;;;10.12;71.01;101468.03;5069676;28;20036;-73
2022/03/12 09:22:46;;;;;;;14.80;4.57;;;;;;;10.14;70.62;101464.28;5069308;28;20037;-73
2022/03/12 09:25:12;;;;;;;15.63;5.25;;;;;;;10.18;70.67;101464.97;5070764;28;20020;-74
2022/03/12 09:27:39;;;;;;;16.00;5.10;;;;;;;10.21;69.92;101462.09;5068065;28;20035;-73
2022/03/12 09:30:05;;;;;;;14.45;4.25;;;;;;;10.26;69.63;101459.09;5068393;28;20111;-73
2022/03/12 09:32:31;;;;;;;14.32;4.43;;;;;;;10.32;70.07;101461.41;5068781;28;20466;-73
2022/03/12 09:34:56;;;;;;;15.18;4.47;;;;;;;10.40;69.39;101463.66;5068469;28;20055;-73
2022/03/12 09:37:21;;;;;;;14.32;4.25;;;;;;;10.47;68.68;101471.25;5068403;28;20532;-73
2022/03/12 09:39:47;;;;;;;13.15;4.07;;;;;;;10.53;67.08;101472.69;5068910;28;20025;-73
2022/03/12 09:42:13;;;;;;;14.23;3.70;;;;;;;10.55;66.84;101465.38;5066687;28;20032;-73
2022/03/12 09:44:38;;;;;;;13.82;3.97;;;;;;;10.59;65.31;101463.38;5065618;28;20146;-74
2022/03/12 09:47:03;;;;;;;17.30;3.80;;;;;;;10.63;66.11;101470.25;5068774;28;20487;-73
2022/03/12 09:49:29;;;;;;;16.65;4.20;;;;;;;10.70;66.23;101459.97;5068439;28;20029;-74
2022/03/12 09:51:57;;;;;;;12.25;3.83;;;;;;;10.73;64.55;101471.41;5068493;28;20071;-73
2022/03/12 09:54:22;;;;;;;14.15;3.75;;;;;;;10.75;64.52;101469.47;5068041;28;20029;-74
2022/03/12 09:56:47;;;;;;;15.75;4.07;;;;;;;10.75;64.71;101474.00;5067209;28;20028;-74
2022/03/12 09:59:13;;;;;;;12.90;3.42;;;;;;;10.76;65.19;101479.28;5066887;28;20093;-74
2022/03/12 10:01:38;;;;;;;14.13;3.83;;;;;;;10.80;64.58;101485.31;5069226;28;20418;-74
2022/03/12 10:04:03;;;;;;;14.35;3.90;;;;;;;10.85;64.37;101480.53;5069567;28;20054;-74
2022/03/12 10:06:31;;;;;;;12.43;3.75;;;;;;;10.90;64.63;101482.91;5069421;28;20024;-74
2022/03/12 10:08:56;;;;;;;12.30;3.75;;;;;;;10.93;63.37;101474.63;5069043;28;20032;-73
2022/03/12 10:11:22;;;;;;;11.02;3.92;;;;;;;10.94;63.51;101484.44;5068394;28;20052;-74
2022/03/12 10:13:48;;;;;;;14.63;4.13;;;;;;;10.98;63.84;101480.56;5065936;28;20078;-74
2022/03/12 10:16:14;;;;;;;16.00;3.42;;;;;;;11.03;63.83;101486.53;5066052;28;20070;-74
2022/03/12 10:18:41;;;;;;;10.10;3.30;;;;;;;11.06;63.56;101483.63;5068181;28;20119;-73
2022/03/12 10:21:07;;;;;;;14.48;4.10;;;;;;;11.09;63.44;101488.81;5067223;28;20480;-74
2022/03/12 10:23:33;;;;;;;14.05;3.95;;;;;;;11.12;63.88;101485.91;5068384;28;20132;-74
2022/03/12 10:25:58;;;;;;;13.25;3.70;;;;;;;11.19;62.63;101484.56;5065347;28;20503;-74
2022/03/12 10:28:24;;;;;;;17.15;4.13;;;;;;;11.24;62.07;101486.09;5066224;28;20054;-74
2022/03/12 10:30:49;;;;;;;22.00;3.70;;;;;;;11.24;62.78;101486.09;5067441;28;20017;-74
2022/03/12 10:33:21;;;;;;;13.48;3.05;;;;;;;11.28;62.01;101479.53;5068643;28;20554;-74
2022/03/12 10:35:46;;;;;;;16.05;3.50;;;;;;;11.32;62.42;101484.59;5066991;28;20162;-75
2022/03/12 10:38:14;;;;;;;11.75;3.08;;;;;;;11.33;61.24;101486.34;5068467;28;20123;-74
2022/03/12 10:40:39;;;;;;;15.57;4.07;;;;;;;11.37;63.13;101477.06;5068384;28;20032;-75
2022/03/12 10:43:17;;;;;;;17.60;4.00;;;;;;;11.43;61.43;101486.56;5066524;28;20048;-74
2022/03/12 10:45:48;;;;;;;21.50;3.65;;;;;;;11.47;61.71;101481.88;5066671;28;20028;-74
2022/03/12 10:48:20;;;;;;;11.07;3.72;;;;;;;11.53;61.99;101486.84;5067098;28;20135;-74
2022/03/12 10:50:50;;;;;;;12.63;3.17;;;;;;;11.59;62.43;101481.03;5066258;28;20032;-74
2022/03/12 10:53:17;;;;;;;11.13;3.13;;;;;;;11.63;60.31;101477.16;5066443;28;20090;-74
2022/03/12 10:55:49;;;;;;;14.77;3.22;;;;;;;11.67;60.13;101483.19;5068606;28;20032;-75
2022/03/12 10:58:20;;;;;;;16.73;3.90;;;;;;;11.75;60.48;101480.00;5067318;28;20024;-75
2022/03/12 11:00:50;;;;;;;16.15;3.03;;;;;;;11.80;60.39;101473.34;5066684;28;20024;-75
2022/03/12 11:03:20;;;;;;;14.35;3.55;;;;;;;11.85;59.76;101476.56;5067228;28;20032;-74
2022/03/12 11:05:46;;;;;;;;;;;;;;;11.88;60.83;101483.56;5065279;28;20089;-74
2022/03/12 11:08:17;;;;;;;13.80;3.42;;;;;;;11.92;58.75;101487.78;5067173;28;20086;-75
2022/03/12 11:11:13;;;;;;;8.02;3.05;;;;;;;11.96;58.84;101493.84;5066676;28;20048;-74
2022/03/12 11:13:50;;;;;;;10.57;3.40;;;;;;;11.98;58.13;101491.94;5067694;28;20113;-74
2022/03/12 11:16:29;;;;;;;10.27;2.90;;;;;;;12.00;58.20;101487.28;5081820;28;20117;-74
2022/03/12 11:19:01;;;;;;;11.00;2.78;;;;;;;12.03;57.72;101495.16;5066348;28;20039;-74
2022/03/12 11:21:41;;;;;;;14.45;3.15;;;;;;;12.04;58.03;101494.19;5067914;28;20058;-75